Time;durP1;ratioP1;P1;durP2;ratioP2;P2;SDS_P1;SDS_P2;PMS_P1;PMS_P2;Temp;Humidity;BMP_temperature;BMP_pressure;BME280_temperature;BME280_humidity;BME280_pressure;Samples;Min_cycle;Max_cycle;Signal;HPM_P1;HPM_P2
2023/02/20 00:00:51;;;;;;;19.17;11.20;;;6.70;99.90;;;;;;5060455;28;20073;-95
2023/02/20 00:03:20;;;;;;;16.27;10.70;;;6.70;99.90;;;;;;5058488;28;20021;-94
2023/02/20 00:05:58;;;;;;;;;;;;;;;;;;;;;
2023/02/20 00:08:27;;;;;;;19.77;11.15;;;6.80;99.90;;;;;;5062268;28;20080;-95
2023/02/20 00:11:21;;;;;;;20.63;12.65;;;6.80;99.90;;;;;;5060347;28;20051;-94
2023/02/20 00:18:05;;;;;;;23.05;12.55;;;6.70;99.90;;;;;;5079591;28;20065;-94
2023/02/20 00:20:36;;;;;;;18.27;11.50;;;6.80;99.90;;;;;;5053170;28;20480;-95
2023/02/20 00:23:23;;;;;;;18.10;11.02;;;6.80;99.90;;;;;;5042036;28;20032;-96
2023/02/20 00:29:37;;;;;;;21.15;12.73;;;6.80;99.90;;;;;;5056220;28;20147;-95
2023/02/20 00:39:44;;;;;;;18.58;12.13;;;6.80;99.90;;;;;;5056049;28;20425;-95
2023/02/20 00:42:47;;;;;;;20.92;11.85;;;6.80;99.90;;;;;;5037928;28;20040;-95
2023/02/20 00:55:28;;;;;;;23.25;12.13;;;6.90;99.90;;;;;;4979222;28;20550;-94
2023/02/20 00:58:12;;;;;;;;;;;;;;;;;;;;;
2023/02/20 01:00:45;;;;;;;21.45;12.30;;;6.80;99.90;;;;;;4995667;28;20045;-93
2023/02/20 01:03:16;;;;;;;21.65;11.82;;;6.80;99.90;;;;;;5025584;28;20484;-94
2023/02/20 01:06:05;;;;;;;17.10;10.80;;;6.80;99.90;;;;;;5042536;28;20116;-94
2023/02/20 01:08:54;;;;;;;20.65;10.82;;;6.90;99.90;;;;;;5042498;28;20017;-94
2023/02/20 01:11:30;;;;;;;21.77;11.40;;;6.80;99.90;;;;;;5000573;28;20034;-94
2023/02/20 01:14:07;;;;;;;18.42;10.68;;;6.90;99.90;;;;;;5044377;28;20064;-93
2023/02/20 01:16:44;;;;;;;18.38;11.45;;;6.80;99.90;;;;;;5062908;28;20124;-94
2023/02/20 01:19:28;;;;;;;21.63;11.00;;;6.80;99.90;;;;;;5064192;28;20095;-92
2023/02/20 01:22:07;;;;;;;18.73;10.73;;;6.80;99.90;;;;;;5058836;28;20117;-94
2023/02/20 01:28:10;;;;;;;;;;;;;;;;;;;;;
2023/02/20 01:30:57;;;;;;;;;;;6.80;99.90;;;;;;5064688;28;20028;-94
2023/02/20 01:33:27;;;;;;;18.02;10.35;;;6.80;99.90;;;;;;5061383;28;19905;-93
2023/02/20 01:36:11;;;;;;;;;;;;;;;;;;;;;
2023/02/20 01:38:50;;;;;;;;;;;;;;;;;;;;;
2023/02/20 01:41:48;;;;;;;;;;;;;;;;;;;;;
2023/02/20 01:44:25;;;;;;;20.35;10.98;;;6.80;99.90;;;;;;5063305;28;20543;-94
2023/02/20 01:47:22;;;;;;;23.75;11.45;;;6.80;99.90;;;;;;5061060;28;20082;-93
2023/02/20 01:53:23;;;;;;;21.75;10.40;;;6.80;99.90;;;;;;5079582;28;20096;-94
2023/02/20 01:56:23;;;;;;;20.48;10.55;;;6.80;99.90;;;;;;5060445;28;20103;-93
2023/02/20 02:02:19;;;;;;;20.33;10.73;;;6.80;99.90;;;;;;5098849;28;20024;-95
2023/02/20 02:08:51;;;;;;;23.13;10.77;;;6.80;99.90;;;;;;5082800;28;20092;-94
2023/02/20 02:11:52;;;;;;;21.58;10.93;;;6.70;99.90;;;;;;5055822;28;20041;-94
2023/02/20 02:14:24;;;;;;;27.77;12.82;;;6.80;99.90;;;;;;5071075;28;20080;-93
2023/02/20 02:17:01;;;;;;;22.42;12.05;;;6.80;99.90;;;;;;5080976;28;20019;-94
2023/02/20 02:19:45;;;;;;;23.55;12.68;;;6.80;99.90;;;;;;5097940;28;20025;-93
2023/02/20 02:22:28;;;;;;;;;;;;;;;;;;;;;
2023/02/20 02:25:48;;;;;;;;;;;;;;;;;;;;;
2023/02/20 02:28:53;;;;;;;25.10;12.55;;;6.80;99.90;;;;;;5078873;28;20112;-93
2023/02/20 02:31:43;;;;;;;23.85;13.57;;;6.80;99.90;;;;;;5065262;28;20078;-92
2023/02/20 02:34:39;;;;;;;24.05;13.43;;;6.70;99.90;;;;;;5077317;28;20015;-93
2023/02/20 02:37:38;;;;;;;21.65;12.63;;;6.80;99.90;;;;;;5080388;28;20084;-93
2023/02/20 02:40:48;;;;;;;21.17;12.30;;;6.80;99.90;;;;;;5074001;28;20077;-93
2023/02/20 02:43:36;;;;;;;18.95;12.18;;;6.80;99.90;;;;;;5059892;28;20028;-93
2023/02/20 02:46:14;;;;;;;25.08;13.35;;;6.80;99.90;;;;;;5059754;28;20062;-93
2023/02/20 02:49:01;;;;;;;;;;;;;;;;;;;;;
2023/02/20 02:51:46;;;;;;;;;;;;;;;;;;;;;
2023/02/20 02:54:26;;;;;;;25.15;12.93;;;6.80;99.90;;;;;;5076465;28;20022;-95
2023/02/20 02:57:26;;;;;;;;;;;;;;;;;;;;;
2023/02/20 03:00:18;;;;;;;28.95;15.35;;;6.80;99.90;;;;;;5078610;28;20112;-94
2023/02/20 03:03:32;;;;;;;;;;;;;;;;;;;;;
2023/02/20 03:06:32;;;;;;;;;;;;;;;;;;;;;
2023/02/20 03:15:54;;;;;;;;;;;;;;;;;;;;;
2023/02/20 03:18:46;;;;;;;32.65;15.80;;;6.80;99.90;;;;;;4996942;28;20026;-94
2023/02/20 03:21:25;;;;;;;30.17;17.35;;;6.80;99.90;;;;;;5059822;28;20032;-93
2023/02/20 03:27:56;;;;;;;42.42;22.00;;;6.90;99.90;;;;;;5054207;28;20040;-94
2023/02/20 03:30:35;;;;;;;38.47;21.95;;;6.90;99.90;;;;;;5037946;28;20043;-94
2023/02/20 03:45:44;;;;;;;49.13;24.50;;;7.00;99.90;;;;;;4995363;28;20097;-94
2023/02/20 03:55:44;;;;;;;48.17;26.70;;;7.00;99.90;;;;;;4995551;28;20041;-94
2023/02/20 03:58:42;;;;;;;49.65;25.98;;;7.00;99.90;;;;;;4994033;28;20034;-94
2023/02/20 04:01:18;;;;;;;49.25;26.73;;;7.00;99.90;;;;;;4994812;28;20038;-94
2023/02/20 04:04:00;;;;;;;50.20;28.20;;;7.00;99.90;;;;;;4978472;28;20026;-94
2023/02/20 04:06:40;;;;;;;52.42;27.10;;;7.00;99.90;;;;;;4994763;28;20069;-93
2023/02/20 04:13:01;;;;;;;;;;;;;;;;;;;;;
2023/02/20 04:15:34;;;;;;;54.10;29.00;;;7.10;99.90;;;;;;5075809;28;20043;-95
2023/02/20 04:18:23;;;;;;;55.45;29.33;;;7.10;99.90;;;;;;5042202;28;20032;-94
2023/02/20 04:20:59;;;;;;;55.53;30.63;;;7.10;99.90;;;;;;5058204;28;20475;-94
2023/02/20 04:26:55;;;;;;;57.28;30.65;;;7.20;99.90;;;;;;5076110;28;20035;-94
2023/02/20 04:29:25;;;;;;;55.72;31.92;;;7.20;99.90;;;;;;5057701;28;20028;-94
2023/02/20 04:32:02;;;;;;;60.45;33.85;;;7.30;99.90;;;;;;5058486;28;20024;-94
2023/02/20 04:34:34;;;;;;;59.10;31.42;;;7.20;99.90;;;;;;5056774;28;20028;-93
2023/02/20 04:37:23;;;;;;;59.25;32.28;;;7.30;99.90;;;;;;5080932;28;20001;-96
2023/02/20 04:39:51;;;;;;;60.72;33.25;;;7.30;99.90;;;;;;5080815;28;20009;-94
2023/02/20 04:42:24;;;;;;;66.78;31.58;;;7.30;99.90;;;;;;5062862;28;20035;-94
2023/02/20 04:44:53;;;;;;;66.70;32.30;;;7.30;99.90;;;;;;5074372;28;20051;-94
2023/02/20 04:57:52;;;;;;;56.17;31.05;;;7.40;99.90;;;;;;5076129;28;20083;-94
2023/02/20 05:00:21;;;;;;;52.40;29.70;;;7.40;99.90;;;;;;5058982;28;20028;-94
2023/02/20 05:03:26;;;;;;;;;;;;;;;;;;;;;
2023/02/20 05:05:57;;;;;;;54.88;30.08;;;7.40;99.90;;;;;;5084258;28;20108;-93
2023/02/20 05:08:25;;;;;;;55.28;30.80;;;7.50;99.90;;;;;;5058087;28;20456;-94
2023/02/20 05:14:26;;;;;;;58.78;31.17;;;7.50;99.90;;;;;;5075310;28;20365;-93
2023/02/20 05:16:54;;;;;;;49.40;28.90;;;7.60;99.90;;;;;;5057609;28;20036;-96
2023/02/20 05:19:41;;;;;;;50.40;27.88;;;7.50;99.90;;;;;;5057969;28;20017;-96
2023/02/20 05:25:31;;;;;;;52.08;26.20;;;7.60;99.90;;;;;;5074984;28;20058;-94
2023/02/20 05:27:57;;;;;;;49.78;26.67;;;7.60;99.90;;;;;;5041270;28;20123;-94
2023/02/20 05:30:29;;;;;;;57.08;29.42;;;7.60;99.90;;;;;;5040605;28;20048;-92
2023/02/20 05:32:54;;;;;;;54.10;27.00;;;7.60;99.90;;;;;;5057125;28;20016;-94
2023/02/20 05:35:23;;;;;;;46.63;24.25;;;7.70;99.90;;;;;;5059866;28;20085;-94
2023/02/20 05:37:49;;;;;;;48.20;25.85;;;7.70;99.90;;;;;;5044120;28;20376;-94
2023/02/20 05:40:20;;;;;;;45.83;24.83;;;7.70;99.90;;;;;;5060847;28;20021;-94
2023/02/20 05:43:17;;;;;;;50.08;24.75;;;7.70;99.90;;;;;;5045087;28;20016;-94
2023/02/20 05:45:49;;;;;;;43.42;22.08;;;7.70;99.90;;;;;;5060759;28;20028;-93
2023/02/20 05:48:22;;;;;;;39.25;21.77;;;7.70;99.90;;;;;;5060327;28;20024;-94
2023/02/20 05:50:52;;;;;;;44.67;22.65;;;7.80;99.90;;;;;;5060776;28;20035;-94
2023/02/20 05:56:51;;;;;;;43.13;20.45;;;7.80;99.90;;;;;;5078551;28;20515;-94
2023/02/20 05:59:21;;;;;;;43.83;21.58;;;7.80;99.90;;;;;;5061380;28;20024;-94
2023/02/20 06:02:01;;;;;;;42.33;21.58;;;7.80;99.90;;;;;;5061181;28;20123;-93
2023/02/20 06:08:06;;;;;;;41.58;20.73;;;7.80;99.90;;;;;;5079411;28;20043;-95
2023/02/20 06:14:30;;;;;;;40.70;19.75;;;7.90;99.90;;;;;;4998507;28;20037;-93
2023/02/20 06:20:18;;;;;;;;;;;7.90;99.90;;;;;;4998950;28;20061;-94
2023/02/20 06:22:58;;;;;;;41.25;20.67;;;7.90;99.90;;;;;;4998226;28;20437;-94
2023/02/20 06:25:52;;;;;;;42.03;20.40;;;7.90;99.90;;;;;;4927906;28;20089;-93
2023/02/20 06:28:32;;;;;;;37.60;22.02;;;7.90;99.90;;;;;;4964785;28;20134;-94
2023/02/20 06:31:04;;;;;;;46.63;21.95;;;7.90;99.90;;;;;;4965065;28;20050;-94
2023/02/20 06:33:57;;;;;;;44.15;22.20;;;8.00;99.90;;;;;;4981068;28;20057;-95
2023/02/20 06:39:15;;;;;;;41.90;21.13;;;8.00;99.90;;;;;;4976965;28;20035;-94
2023/02/20 06:41:41;;;;;;;46.70;22.23;;;8.00;99.90;;;;;;5015406;28;20036;-95
2023/02/20 06:44:22;;;;;;;;;;;;;;;;;;;;;
2023/02/20 06:50:08;;;;;;;48.05;20.98;;;8.10;99.90;;;;;;5044946;28;20036;-93
2023/02/20 06:52:34;;;;;;;41.03;21.85;;;8.10;99.90;;;;;;5040839;28;20020;-94
2023/02/20 06:55:15;;;;;;;;;;;;;;;;;;;;;
2023/02/20 07:01:04;;;;;;;36.42;19.60;;;8.10;99.90;;;;;;5063711;28;20044;-96
2023/02/20 07:03:56;;;;;;;;;;;;;;;;;;;;;
2023/02/20 07:06:31;;;;;;;36.53;18.73;;;8.10;99.90;;;;;;5063857;28;20109;-93
2023/02/20 07:09:19;;;;;;;40.67;21.20;;;8.10;99.90;;;;;;5045753;28;20033;-95
2023/02/20 07:12:15;;;;;;;36.55;19.92;;;8.20;99.90;;;;;;5047272;28;20025;-94
2023/02/20 07:22:02;;;;;;;;;;;8.20;99.90;;;;;;5024724;28;20041;-96
2023/02/20 07:25:07;;;;;;;37.95;20.10;;;8.20;99.90;;;;;;5005326;28;19909;-94
2023/02/20 07:27:36;;;;;;;46.40;22.35;;;8.20;99.90;;;;;;5027197;28;20068;-92
2023/02/20 07:30:17;;;;;;;;;;;;;;;;;;;;;
2023/02/20 07:36:16;;;;;;;40.22;21.25;;;8.20;99.90;;;;;;4977141;28;20070;-91
2023/02/20 07:38:42;;;;;;;;;;;8.30;99.90;;;;;;4963889;28;20094;-92
2023/02/20 08:22:04;;;;;;;41.15;21.15;;;8.40;99.90;;;;;;4998413;28;20033;-93
2023/02/20 08:34:53;;;;;;;42.60;21.75;;;8.50;99.90;;;;;;4907879;29;20051;-92
2023/02/20 09:10:46;;;;;;;37.65;20.20;;;8.70;99.90;;;;;;5042753;28;20030;-94
2023/02/20 09:13:32;;;;;;;31.60;19.25;;;8.70;99.90;;;;;;5011133;28;20125;-95
2023/02/20 09:19:47;;;;;;;35.88;19.13;;;8.80;99.90;;;;;;5080896;28;20024;-94
2023/02/20 09:26:15;;;;;;;31.25;16.98;;;8.80;99.90;;;;;;5079038;28;20094;-95
2023/02/20 09:35:39;;;;;;;31.05;16.95;;;8.90;99.90;;;;;;5068496;28;20040;-95
2023/02/20 09:38:27;;;;;;;32.15;16.60;;;8.90;99.90;;;;;;5053449;28;20055;-96
2023/02/20 09:48:13;;;;;;;31.33;17.52;;;9.00;99.90;;;;;;5078432;28;20055;-95
2023/02/20 09:51:27;;;;;;;;;;;;;;;;;;;;;
2023/02/20 10:04:08;;;;;;;30.92;14.77;;;9.00;99.90;;;;;;4998199;28;20041;-94
2023/02/20 10:07:20;;;;;;;28.77;15.82;;;9.10;99.90;;;;;;4978685;28;20034;-91
2023/02/20 10:10:26;;;;;;;31.65;16.23;;;9.00;99.90;;;;;;4961868;28;20034;-94
2023/02/20 10:13:10;;;;;;;;;;;;;;;;;;;;;
2023/02/20 10:19:35;;;;;;;;;;;9.10;99.90;;;;;;4959237;29;20460;-94
2023/02/20 10:22:19;;;;;;;37.63;14.27;;;9.10;99.90;;;;;;4992710;28;19906;-94
2023/02/20 10:28:02;;;;;;;29.00;15.55;;;9.10;99.90;;;;;;5015436;28;20149;-93
2023/02/20 10:50:53;;;;;;;;;;;9.20;99.90;;;;;;4959776;28;20030;-94
2023/02/20 11:10:17;;;;;;;33.70;14.65;;;9.20;99.90;;;;;;4919930;29;20023;-95
2023/02/20 11:22:49;;;;;;;;;;;9.20;99.90;;;;;;5013010;28;20052;-94
2023/02/20 11:28:38;;;;;;;20.00;10.02;;;9.20;99.90;;;;;;5027318;28;20041;-94
2023/02/20 11:31:22;;;;;;;21.98;10.25;;;9.20;99.90;;;;;;5013213;28;20025;-93
2023/02/20 11:33:55;;;;;;;22.88;10.60;;;9.30;99.90;;;;;;5021183;28;20033;-96
2023/02/20 11:36:38;;;;;;;25.15;10.32;;;9.30;99.90;;;;;;5018008;28;20080;-95
2023/02/20 11:43:06;;;;;;;27.65;10.90;;;9.30;99.90;;;;;;5016599;28;20028;-95
2023/02/20 11:45:34;;;;;;;18.35;8.35;;;9.30;99.90;;;;;;4999642;28;20482;-94
2023/02/20 11:48:12;;;;;;;21.17;8.77;;;9.30;99.90;;;;;;5014817;28;20075;-93
2023/02/20 11:51:21;;;;;;;19.23;8.82;;;9.30;99.90;;;;;;5019123;28;20033;-95
2023/02/20 11:57:46;;;;;;;24.08;9.05;;;9.40;99.90;;;;;;5033485;28;20072;-93
2023/02/20 12:00:18;;;;;;;21.50;8.07;;;9.40;99.90;;;;;;4999089;28;20037;-94
2023/02/20 12:03:07;;;;;;;16.23;7.60;;;9.40;99.90;;;;;;4998524;28;20180;-94
2023/02/20 12:05:41;;;;;;;19.20;7.38;;;9.40;99.90;;;;;;4990943;28;20029;-94
2023/02/20 12:08:37;;;;;;;15.52;6.53;;;9.50;99.90;;;;;;5019720;28;20068;-93
2023/02/20 12:14:19;;;;;;;11.63;6.25;;;9.40;99.90;;;;;;5075839;28;20043;-94
2023/02/20 12:21:07;;;;;;;;;;;;;;;;;;;;;
2023/02/20 12:27:40;;;;;;;13.30;5.70;;;9.50;99.90;;;;;;5034848;28;20025;-95
2023/02/20 12:33:55;;;;;;;14.13;6.28;;;9.60;99.90;;;;;;5015356;28;20032;-95
2023/02/20 12:40:04;;;;;;;15.55;6.18;;;9.60;99.90;;;;;;5014929;28;20052;-94
2023/02/20 12:46:23;;;;;;;12.32;5.07;;;9.70;99.90;;;;;;4983006;28;20042;-95
2023/02/20 12:49:16;;;;;;;12.83;5.80;;;9.70;99.90;;;;;;5068446;28;20033;-93
2023/02/20 12:51:55;;;;;;;15.73;5.05;;;9.70;99.90;;;;;;5060462;28;20025;-94
2023/02/20 12:54:58;;;;;;;15.18;5.25;;;9.70;99.90;;;;;;5062041;28;20452;-94
2023/02/20 12:57:39;;;;;;;8.77;4.35;;;9.70;99.90;;;;;;5062338;28;20044;-95
2023/02/20 13:00:28;;;;;;;10.82;4.55;;;9.70;99.90;;;;;;5074657;28;20534;-95
2023/02/20 13:03:14;;;;;;;8.90;4.72;;;9.80;99.90;;;;;;5042286;28;20147;-95
2023/02/20 13:05:47;;;;;;;11.85;5.10;;;9.70;99.90;;;;;;5066413;28;20020;-95
2023/02/20 13:08:53;;;;;;;;;;;;;;;;;;;;;
2023/02/20 13:11:25;;;;;;;13.02;5.57;;;9.80;99.90;;;;;;5039946;28;20030;-95
2023/02/20 13:14:13;;;;;;;12.00;5.18;;;9.80;99.90;;;;;;5044886;28;20029;-95
2023/02/20 13:17:33;;;;;;;9.35;4.93;;;9.80;99.90;;;;;;5046569;28;20115;-96
2023/02/20 13:20:40;;;;;;;13.15;5.28;;;9.80;99.90;;;;;;5010902;28;20522;-95
2023/02/20 13:23:22;;;;;;;10.50;4.88;;;9.90;99.90;;;;;;5004816;28;20025;-95
2023/02/20 13:25:51;;;;;;;8.30;5.00;;;9.90;99.90;;;;;;5052709;28;20051;-95
2023/02/20 13:28:29;;;;;;;11.23;5.10;;;9.90;99.90;;;;;;5074185;28;20048;-96
2023/02/20 13:31:24;;;;;;;12.68;5.50;;;9.90;99.90;;;;;;5062150;28;20028;-95
2023/02/20 13:34:25;;;;;;;13.68;5.85;;;10.00;99.90;;;;;;5061279;28;20017;-94
2023/02/20 13:40:26;;;;;;;15.00;6.25;;;10.00;99.90;;;;;;5079854;28;20380;-93
2023/02/20 13:43:23;;;;;;;14.65;6.47;;;10.00;99.90;;;;;;5063394;28;20113;-93
2023/02/20 13:46:13;;;;;;;16.13;6.80;;;10.00;99.90;;;;;;5021647;28;20048;-94
2023/02/20 13:48:52;;;;;;;13.43;6.77;;;10.10;99.90;;;;;;5016372;28;20025;-95
2023/02/20 13:51:23;;;;;;;12.15;5.85;;;10.10;99.90;;;;;;5062084;28;20290;-94
2023/02/20 13:54:45;;;;;;;;;;;;;;;;;;;;;
2023/02/20 13:57:26;;;;;;;;;;;10.00;99.90;;;;;;5065049;28;20046;-95
2023/02/20 13:59:59;;;;;;;11.13;6.05;;;10.10;99.90;;;;;;5064431;28;19911;-94
2023/02/20 14:08:29;;;;;;;14.25;6.68;;;10.10;99.90;;;;;;5083704;28;20043;-95
2023/02/20 14:11:02;;;;;;;15.23;8.40;;;10.10;99.90;;;;;;5061722;28;20125;-95
2023/02/20 14:13:31;;;;;;;17.83;9.02;;;10.10;99.90;;;;;;5061843;28;20396;-95
2023/02/20 14:16:35;;;;;;;16.15;9.50;;;10.10;99.90;;;;;;5046191;28;20033;-96
2023/02/20 14:19:18;;;;;;;15.95;10.15;;;10.10;99.90;;;;;;5062666;28;20111;-95
2023/02/20 14:25:22;;;;;;;20.08;11.20;;;10.20;99.90;;;;;;5080100;28;20035;-94
2023/02/20 14:28:52;;;;;;;18.33;10.32;;;10.10;99.90;;;;;;5062480;28;20025;-95
2023/02/20 14:31:43;;;;;;;20.67;11.15;;;10.20;99.90;;;;;;5079541;28;20167;-93
2023/02/20 14:34:26;;;;;;;;;;;10.10;99.90;;;;;;5063197;28;20024;-95
2023/02/20 14:37:34;;;;;;;19.40;11.43;;;10.20;99.90;;;;;;5061846;28;19908;-92
2023/02/20 14:40:49;;;;;;;19.38;10.43;;;10.20;99.90;;;;;;5062038;28;20032;-94
2023/02/20 14:43:26;;;;;;;15.90;10.15;;;10.20;99.90;;;;;;5031749;28;20037;-94
2023/02/20 14:46:06;;;;;;;16.33;9.35;;;10.20;99.90;;;;;;5065320;28;20036;-95
2023/02/20 14:48:44;;;;;;;;;;;;;;;;;;;;;
2023/02/20 14:51:15;;;;;;;12.98;7.25;;;10.20;99.90;;;;;;5099442;28;20020;-95
2023/02/20 14:53:58;;;;;;;9.57;6.55;;;10.20;99.90;;;;;;5058150;28;20018;-94
2023/02/20 14:56:30;;;;;;;9.68;5.60;;;10.20;99.90;;;;;;5096886;28;20483;-95
2023/02/20 14:58:58;;;;;;;13.18;5.93;;;10.20;99.90;;;;;;5079393;28;20025;-94
2023/02/20 15:01:27;;;;;;;8.85;4.95;;;10.20;99.90;;;;;;5078817;28;20027;-94
2023/02/20 15:04:17;;;;;;;7.25;4.63;;;10.20;99.90;;;;;;5073224;28;20464;-94
2023/02/20 15:06:57;;;;;;;11.20;4.40;;;10.20;99.90;;;;;;5063893;28;20115;-94
2023/02/20 15:10:04;;;;;;;9.25;4.63;;;10.20;99.90;;;;;;5062853;28;20276;-95
2023/02/20 15:17:04;;;;;;;12.80;5.40;;;10.10;99.90;;;;;;5018034;28;20033;-93
2023/02/20 15:26:39;;;;;;;11.75;4.93;;;10.10;99.90;;;;;;5038649;28;20040;-94
2023/02/20 15:32:32;;;;;;;13.90;6.57;;;10.10;99.90;;;;;;5077536;28;20028;-93
2023/02/20 15:34:58;;;;;;;9.88;6.13;;;10.10;99.90;;;;;;5044565;28;20118;-94
2023/02/20 15:37:33;;;;;;;9.93;6.32;;;10.10;99.90;;;;;;5060893;28;20051;-94
2023/02/20 15:40:19;;;;;;;11.60;6.85;;;10.10;99.90;;;;;;5044684;28;20045;-93
2023/02/20 15:42:47;;;;;;;10.27;7.13;;;10.10;99.90;;;;;;5060223;28;20028;-93
2023/02/20 15:45:17;;;;;;;12.57;7.78;;;10.10;99.90;;;;;;5059704;28;20058;-94
2023/02/20 15:47:59;;;;;;;;;;;;;;;;;;;;;
2023/02/20 15:50:44;;;;;;;16.00;6.93;;;10.20;99.90;;;;;;5078217;28;20422;-95
2023/02/20 15:53:22;;;;;;;7.60;5.97;;;10.10;99.90;;;;;;5059134;28;20056;-95
2023/02/20 15:55:56;;;;;;;10.77;6.25;;;10.20;99.90;;;;;;5076629;28;20437;-94
2023/02/20 15:58:46;;;;;;;8.32;5.30;;;10.10;99.90;;;;;;5058372;28;20055;-93
2023/02/20 16:01:19;;;;;;;9.93;5.72;;;10.10;99.90;;;;;;5058731;28;20358;-93
2023/02/20 16:03:57;;;;;;;10.98;6.00;;;10.10;99.90;;;;;;5076474;28;20027;-94
2023/02/20 16:06:25;;;;;;;9.35;5.65;;;10.10;99.90;;;;;;5025255;28;20507;-93
2023/02/20 16:09:03;;;;;;;;;;;;;;;;;;;;;
2023/02/20 16:11:40;;;;;;;9.98;5.20;;;10.10;99.90;;;;;;5076636;28;20111;-95
2023/02/20 16:14:06;;;;;;;10.75;5.32;;;10.10;99.90;;;;;;5058657;28;20032;-94
2023/02/20 16:16:41;;;;;;;9.18;5.03;;;10.10;99.90;;;;;;5075493;28;20474;-94
2023/02/20 16:19:44;;;;;;;9.48;5.38;;;10.10;99.90;;;;;;5059992;28;20028;-95
2023/02/20 16:25:34;;;;;;;10.77;5.80;;;10.10;99.90;;;;;;5053554;28;20055;-95
2023/02/20 16:28:07;;;;;;;8.55;5.60;;;10.00;99.90;;;;;;5059995;28;20410;-94
2023/02/20 16:30:37;;;;;;;10.57;6.32;;;10.00;99.90;;;;;;5055904;28;20052;-95
2023/02/20 16:33:25;;;;;;;10.55;7.35;;;10.00;99.90;;;;;;5055976;28;20017;-94
2023/02/20 16:35:52;;;;;;;14.52;7.07;;;10.00;99.90;;;;;;5055957;28;20043;-93
2023/02/20 16:38:20;;;;;;;13.52;7.70;;;10.00;99.90;;;;;;5055485;28;20025;-95
2023/02/20 16:40:53;;;;;;;14.98;8.18;;;10.00;99.90;;;;;;5022746;28;20029;-94
2023/02/20 16:43:20;;;;;;;15.70;9.48;;;10.00;99.90;;;;;;5056517;28;20024;-94
2023/02/20 16:45:51;;;;;;;17.75;9.95;;;10.00;99.90;;;;;;5055600;28;20366;-95
2023/02/20 16:48:19;;;;;;;16.27;10.45;;;10.00;99.90;;;;;;5055679;28;20040;-93
2023/02/20 16:50:51;;;;;;;14.25;9.88;;;10.00;99.90;;;;;;5055248;28;20024;-94
2023/02/20 16:53:30;;;;;;;18.35;10.25;;;10.00;99.90;;;;;;5072551;28;20079;-95
2023/02/20 16:55:58;;;;;;;21.90;11.88;;;10.00;99.90;;;;;;5040486;28;20056;-95
2023/02/20 16:58:26;;;;;;;21.88;12.98;;;10.00;99.90;;;;;;5055232;28;20054;-94
2023/02/20 17:00:55;;;;;;;20.80;12.70;;;10.00;99.90;;;;;;5054954;28;20025;-95
2023/02/20 17:03:23;;;;;;;24.80;14.55;;;10.00;99.90;;;;;;5054308;28;20102;-94
2023/02/20 17:05:59;;;;;;;23.83;15.35;;;10.00;99.90;;;;;;5054801;28;20029;-93
2023/02/20 17:08:26;;;;;;;26.50;17.33;;;10.00;99.90;;;;;;5054468;28;20116;-95
2023/02/20 17:10:54;;;;;;;23.08;15.90;;;10.00;99.90;;;;;;5054226;28;20029;-93
2023/02/20 17:13:20;;;;;;;23.30;15.88;;;10.00;99.90;;;;;;5054819;28;20120;-94
2023/02/20 17:15:49;;;;;;;24.63;16.88;;;10.10;99.90;;;;;;5055225;28;20079;-94
2023/02/20 17:18:27;;;;;;;;;;;;;;;;;;;;;
2023/02/20 17:20:53;;;;;;;22.33;15.25;;;10.00;99.90;;;;;;5055731;28;20029;-94
2023/02/20 17:23:24;;;;;;;25.10;16.48;;;10.00;99.90;;;;;;5055425;28;20052;-94
2023/02/20 17:25:55;;;;;;;27.55;16.45;;;10.00;99.90;;;;;;5056626;28;20021;-93
2023/02/20 17:28:31;;;;;;;27.60;18.20;;;10.00;99.90;;;;;;5064533;28;20029;-92
2023/02/20 17:31:02;;;;;;;35.03;20.20;;;10.00;99.90;;;;;;5052109;28;20067;-94
2023/02/20 17:33:28;;;;;;;30.35;18.67;;;10.00;99.90;;;;;;5063125;28;20097;-94
2023/02/20 17:36:01;;;;;;;28.67;20.13;;;10.10;99.90;;;;;;5061857;28;20070;-95
2023/02/20 17:38:30;;;;;;;33.22;20.23;;;10.00;99.90;;;;;;5061913;28;20024;-95
2023/02/20 17:41:00;;;;;;;32.50;21.02;;;10.10;99.90;;;;;;5045842;28;20388;-93
2023/02/20 17:43:37;;;;;;;33.20;22.38;;;10.10;99.90;;;;;;5045580;28;20040;-94
2023/02/20 17:46:03;;;;;;;36.22;21.60;;;10.10;99.90;;;;;;5046098;28;20119;-95
2023/02/20 17:48:31;;;;;;;34.67;23.20;;;10.10;99.90;;;;;;5061000;28;20055;-94
2023/02/20 17:51:02;;;;;;;35.05;23.33;;;10.10;99.90;;;;;;5044199;28;20024;-95
2023/02/20 17:53:36;;;;;;;32.50;21.90;;;10.10;99.90;;;;;;5038492;28;20025;-94
2023/02/20 17:56:06;;;;;;;41.50;21.30;;;10.10;99.90;;;;;;5041122;28;20025;-94
2023/02/20 17:58:34;;;;;;;33.65;22.35;;;10.10;99.90;;;;;;5024855;28;20056;-94
2023/02/20 18:01:00;;;;;;;34.97;22.52;;;10.10;99.90;;;;;;5041610;28;20029;-96
2023/02/20 18:03:26;;;;;;;34.10;21.67;;;10.10;99.90;;;;;;5040666;28;20123;-92
2023/02/20 18:05:59;;;;;;;33.88;22.23;;;10.10;99.90;;;;;;5024326;28;20029;-93
2023/02/20 18:08:55;;;;;;;;;;;;;;;;;;;;;
2023/02/20 18:14:48;;;;;;;34.67;23.13;;;10.10;99.90;;;;;;5074340;28;20032;-93
2023/02/20 18:17:35;;;;;;;41.25;25.83;;;10.00;99.90;;;;;;5046431;28;20044;-94
2023/02/20 18:20:00;;;;;;;41.55;25.63;;;10.00;99.90;;;;;;5033397;28;20021;-89
2023/02/20 18:22:54;;;;;;;39.80;26.48;;;10.00;99.90;;;;;;5046514;28;20017;-90
2023/02/20 18:25:20;;;;;;;39.00;26.65;;;10.00;99.90;;;;;;5059485;28;20024;-89
2023/02/20 18:27:47;;;;;;;38.63;26.90;;;10.10;99.90;;;;;;5074936;28;20021;-88
2023/02/20 18:30:45;;;;;;;;;;;;;;;;;;;;;
2023/02/20 18:33:28;;;;;;;41.72;27.88;;;10.00;99.90;;;;;;5087808;28;20167;-93
2023/02/20 18:36:11;;;;;;;45.50;29.30;;;10.00;99.90;;;;;;5032519;28;20040;-92
2023/02/20 18:38:37;;;;;;;40.67;28.60;;;10.00;99.90;;;;;;5043685;28;20067;-90
2023/02/20 18:41:11;;;;;;;44.55;28.13;;;10.00;99.90;;;;;;5059614;28;20032;-91
2023/02/20 18:43:39;;;;;;;42.30;27.95;;;10.00;99.90;;;;;;5060255;28;20082;-93
2023/02/20 18:46:06;;;;;;;36.03;25.00;;;10.00;99.90;;;;;;5060095;28;20025;-93
2023/02/20 18:48:33;;;;;;;40.10;26.38;;;10.00;99.90;;;;;;5060178;28;20020;-92
2023/02/20 18:51:01;;;;;;;34.92;22.80;;;10.00;99.90;;;;;;5059375;28;20024;-91
2023/02/20 18:53:27;;;;;;;30.60;21.52;;;10.00;99.90;;;;;;5043333;28;20491;-92
2023/02/20 18:55:53;;;;;;;34.83;21.23;;;10.00;99.90;;;;;;5058996;28;20111;-93
2023/02/20 18:58:26;;;;;;;32.70;21.50;;;10.00;99.90;;;;;;5059439;28;20027;-92
2023/02/20 19:01:02;;;;;;;29.90;19.70;;;10.00;99.90;;;;;;5059343;28;20028;-91
2023/02/20 19:03:35;;;;;;;31.58;19.42;;;10.00;99.90;;;;;;5043824;28;20032;-91
2023/02/20 19:06:04;;;;;;;29.00;17.80;;;10.00;99.90;;;;;;5041986;28;20039;-91
2023/02/20 19:08:30;;;;;;;24.25;17.13;;;10.00;99.90;;;;;;5059140;28;20122;-91
2023/02/20 19:10:58;;;;;;;24.58;15.90;;;10.00;99.90;;;;;;5058644;28;20067;-93
2023/02/20 19:13:40;;;;;;;25.85;16.40;;;10.00;99.90;;;;;;5042652;28;20052;-92
2023/02/20 19:16:09;;;;;;;21.52;14.23;;;10.00;99.90;;;;;;5059512;28;20020;-91
2023/02/20 19:18:55;;;;;;;;;;;;;;;;;;;;;
2023/02/20 19:21:26;;;;;;;28.60;16.13;;;10.00;99.90;;;;;;5060711;28;20035;-90
2023/02/20 19:24:33;;;;;;;25.02;15.05;;;10.00;99.90;;;;;;5076125;28;20031;-89
2023/02/20 19:34:02;;;;;;;24.95;14.32;;;10.00;99.90;;;;;;5015444;28;20045;-90
2023/02/20 19:36:28;;;;;;;20.52;14.55;;;10.00;99.90;;;;;;4998462;28;20033;-90
2023/02/20 19:39:18;;;;;;;21.75;13.45;;;10.00;99.90;;;;;;4983125;28;20381;-90
2023/02/20 19:45:09;;;;;;;20.05;13.77;;;10.00;99.90;;;;;;5015554;28;20025;-91
2023/02/20 19:48:51;;;;;;;;;;;;;;;;;;;;;
2023/02/20 19:50:49;;;;;;;22.67;15.60;;;9.90;99.90;;;;;;5011500;28;20037;-91
2023/02/20 19:53:34;;;;;;;;;;;;;;;;;;;;;
2023/02/20 19:56:06;;;;;;;21.38;14.80;;;10.00;99.90;;;;;;5007325;28;20453;-91
2023/02/20 19:59:01;;;;;;;22.42;15.68;;;10.00;99.90;;;;;;5078055;28;20518;-92
2023/02/20 20:05:12;;;;;;;23.48;15.18;;;10.00;99.90;;;;;;5079283;28;20019;-92
2023/02/20 20:07:51;;;;;;;20.60;15.07;;;10.00;99.90;;;;;;5043123;28;20033;-94
2023/02/20 20:11:07;;;;;;;24.95;16.75;;;10.00;99.90;;;;;;5061312;28;20017;-92
2023/02/20 20:14:08;;;;;;;;;;;;;;;;;;;;;
2023/02/20 20:17:04;;;;;;;18.88;8.52;;;10.00;99.90;;;;;;5060489;28;20024;-91
2023/02/20 20:30:06;;;;;;;;;;;;;;;;;;;;;
2023/02/20 20:33:09;;;;;;;;;;;;;;;;;;;;;
2023/02/20 20:39:27;;;;;;;;;;;;;;;;;;;;;
2023/02/20 20:45:33;;;;;;;24.70;17.02;;;10.00;99.90;;;;;;4959593;28;20102;-92
2023/02/20 20:51:21;;;;;;;24.75;17.98;;;10.00;99.90;;;;;;4960618;29;20067;-91
2023/02/20 20:53:47;;;;;;;24.05;18.20;;;10.00;99.90;;;;;;4956428;29;20047;-88
2023/02/20 20:56:15;;;;;;;25.83;18.38;;;10.00;99.90;;;;;;4966047;28;20047;-90
2023/02/20 20:58:53;;;;;;;25.27;18.33;;;10.00;99.90;;;;;;4958475;28;20039;-92
2023/02/20 21:01:54;;;;;;;24.13;18.60;;;10.00;99.90;;;;;;4946252;28;20129;-91
2023/02/20 21:04:30;;;;;;;;;;;;;;;;;;;;;
2023/02/20 21:07:03;;;;;;;24.65;18.17;;;10.00;99.90;;;;;;5012497;28;20123;-91
2023/02/20 21:09:42;;;;;;;;;;;;;;;;;;;;;
2023/02/20 21:12:29;;;;;;;25.70;19.05;;;10.00;99.90;;;;;;5078941;28;20033;-91